sensor_id;sensor_type;location;lat;lon;timestamp;P1;durP1;ratioP1;P2;durP2;ratioP2
9473;SDS011;8865;47.636;7.692;2022-09-24T00:01:25;6.43;;;5.60;;
9473;SDS011;8865;47.636;7.692;2022-09-24T00:03:57;6.57;;;5.90;;
9473;SDS011;8865;47.636;7.692;2022-09-24T00:06:34;6.73;;;6.03;;
9473;SDS011;8865;47.636;7.692;2022-09-24T00:09:02;7.43;;;5.77;;
9473;SDS011;8865;47.636;7.692;2022-09-24T00:11:29;6.77;;;5.43;;
9473;SDS011;8865;47.636;7.692;2022-09-24T00:13:57;7.70;;;5.77;;
9473;SDS011;8865;47.636;7.692;2022-09-24T00:16:25;8.17;;;5.90;;
9473;SDS011;8865;47.636;7.692;2022-09-24T00:18:52;8.60;;;5.77;;
9473;SDS011;8865;47.636;7.692;2022-09-24T00:21:20;6.83;;;6.13;;
9473;SDS011;8865;47.636;7.692;2022-09-24T00:23:49;6.37;;;5.70;;
9473;SDS011;8865;47.636;7.692;2022-09-24T00:26:17;7.00;;;5.80;;
9473;SDS011;8865;47.636;7.692;2022-09-24T00:29:01;7.00;;;5.70;;
9473;SDS011;8865;47.636;7.692;2022-09-24T00:31:28;6.93;;;6.17;;
9473;SDS011;8865;47.636;7.692;2022-09-24T00:33:54;6.97;;;6.23;;
9473;SDS011;8865;47.636;7.692;2022-09-24T00:36:20;6.77;;;5.87;;
9473;SDS011;8865;47.636;7.692;2022-09-24T00:38:47;6.60;;;6.00;;
9473;SDS011;8865;47.636;7.692;2022-09-24T00:41:16;7.07;;;6.20;;
9473;SDS011;8865;47.636;7.692;2022-09-24T00:43:44;6.40;;;5.80;;
9473;SDS011;8865;47.636;7.692;2022-09-24T00:46:20;7.70;;;6.20;;
9473;SDS011;8865;47.636;7.692;2022-09-24T00:48:52;7.10;;;6.30;;
9473;SDS011;8865;47.636;7.692;2022-09-24T00:51:26;6.67;;;5.97;;
9473;SDS011;8865;47.636;7.692;2022-09-24T00:53:55;8.17;;;6.17;;
9473;SDS011;8865;47.636;7.692;2022-09-24T00:56:25;7.17;;;5.70;;
9473;SDS011;8865;47.636;7.692;2022-09-24T00:58:53;6.13;;;5.53;;
9473;SDS011;8865;47.636;7.692;2022-09-24T01:01:22;6.50;;;5.87;;
9473;SDS011;8865;47.636;7.692;2022-09-24T01:03:50;8.73;;;5.57;;
9473;SDS011;8865;47.636;7.692;2022-09-24T01:06:20;6.17;;;5.03;;
9473;SDS011;8865;47.636;7.692;2022-09-24T01:08:46;5.67;;;5.17;;
9473;SDS011;8865;47.636;7.692;2022-09-24T01:31:24;6.43;;;5.70;;
9473;SDS011;8865;47.636;7.692;2022-09-24T01:33:58;6.17;;;5.57;;
9473;SDS011;8865;47.636;7.692;2022-09-24T01:36:30;6.17;;;5.57;;
9473;SDS011;8865;47.636;7.692;2022-09-24T01:38:59;6.40;;;5.60;;
9473;SDS011;8865;47.636;7.692;2022-09-24T01:41:27;6.17;;;5.50;;
9473;SDS011;8865;47.636;7.692;2022-09-24T01:43:53;7.97;;;5.73;;
9473;SDS011;8865;47.636;7.692;2022-09-24T01:46:19;6.10;;;5.50;;
9473;SDS011;8865;47.636;7.692;2022-09-24T01:48:47;6.40;;;5.77;;
9473;SDS011;8865;47.636;7.692;2022-09-24T01:56:33;5.83;;;5.33;;
9473;SDS011;8865;47.636;7.692;2022-09-24T02:04:54;5.87;;;5.27;;
9473;SDS011;8865;47.636;7.692;2022-09-24T02:07:34;5.93;;;5.17;;
9473;SDS011;8865;47.636;7.692;2022-09-24T02:10:23;7.47;;;5.50;;
9473;SDS011;8865;47.636;7.692;2022-09-24T02:12:54;5.47;;;4.93;;
9473;SDS011;8865;47.636;7.692;2022-09-24T02:15:27;6.03;;;5.30;;
9473;SDS011;8865;47.636;7.692;2022-09-24T02:17:58;5.93;;;5.20;;
9473;SDS011;8865;47.636;7.692;2022-09-24T02:20:31;6.77;;;4.83;;
9473;SDS011;8865;47.636;7.692;2022-09-24T02:22:59;4.93;;;4.50;;
9473;SDS011;8865;47.636;7.692;2022-09-24T02:25:29;5.73;;;4.80;;
9473;SDS011;8865;47.636;7.692;2022-09-24T02:28:00;5.33;;;4.30;;
9473;SDS011;8865;47.636;7.692;2022-09-24T02:30:27;7.30;;;4.47;;
9473;SDS011;8865;47.636;7.692;2022-09-24T02:32:57;5.60;;;4.80;;
9473;SDS011;8865;47.636;7.692;2022-09-24T02:35:24;4.80;;;4.40;;
9473;SDS011;8865;47.636;7.692;2022-09-24T02:37:50;4.83;;;4.43;;
9473;SDS011;8865;47.636;7.692;2022-09-24T02:40:16;6.17;;;4.93;;
9473;SDS011;8865;47.636;7.692;2022-09-24T02:42:42;6.10;;;5.33;;
9473;SDS011;8865;47.636;7.692;2022-09-24T02:45:08;5.67;;;5.00;;
9473;SDS011;8865;47.636;7.692;2022-09-24T02:47:36;6.93;;;5.70;;
9473;SDS011;8865;47.636;7.692;2022-09-24T02:50:02;6.30;;;5.60;;
9473;SDS011;8865;47.636;7.692;2022-09-24T02:52:29;7.00;;;5.60;;
9473;SDS011;8865;47.636;7.692;2022-09-24T02:54:55;6.07;;;4.97;;
9473;SDS011;8865;47.636;7.692;2022-09-24T02:57:21;8.00;;;5.37;;
9473;SDS011;8865;47.636;7.692;2022-09-24T02:59:47;5.57;;;5.00;;
9473;SDS011;8865;47.636;7.692;2022-09-24T03:02:13;5.40;;;4.90;;
9473;SDS011;8865;47.636;7.692;2022-09-24T03:04:39;5.43;;;4.40;;
9473;SDS011;8865;47.636;7.692;2022-09-24T03:07:05;5.20;;;4.70;;
9473;SDS011;8865;47.636;7.692;2022-09-24T03:09:31;5.07;;;4.57;;
9473;SDS011;8865;47.636;7.692;2022-09-24T03:11:57;5.13;;;4.63;;
9473;SDS011;8865;47.636;7.692;2022-09-24T03:14:25;9.13;;;5.30;;
9473;SDS011;8865;47.636;7.692;2022-09-24T03:16:51;4.70;;;4.30;;
9473;SDS011;8865;47.636;7.692;2022-09-24T03:19:17;5.03;;;4.53;;
9473;SDS011;8865;47.636;7.692;2022-09-24T03:21:43;5.50;;;4.47;;
9473;SDS011;8865;47.636;7.692;2022-09-24T03:24:09;6.00;;;4.80;;
9473;SDS011;8865;47.636;7.692;2022-09-24T03:26:35;5.43;;;4.93;;
9473;SDS011;8865;47.636;7.692;2022-09-24T03:29:02;6.40;;;4.97;;
9473;SDS011;8865;47.636;7.692;2022-09-24T03:31:28;5.57;;;5.07;;
9473;SDS011;8865;47.636;7.692;2022-09-24T03:33:54;6.53;;;5.07;;
9473;SDS011;8865;47.636;7.692;2022-09-24T03:36:22;6.33;;;5.70;;
9473;SDS011;8865;47.636;7.692;2022-09-24T03:38:51;8.13;;;7.07;;
9473;SDS011;8865;47.636;7.692;2022-09-24T03:41:23;6.80;;;6.20;;
9473;SDS011;8865;47.636;7.692;2022-09-24T03:43:50;6.47;;;5.67;;
9473;SDS011;8865;47.636;7.692;2022-09-24T03:46:16;5.50;;;4.93;;
9473;SDS011;8865;47.636;7.692;2022-09-24T03:48:43;5.50;;;4.90;;
9473;SDS011;8865;47.636;7.692;2022-09-24T03:51:12;6.00;;;5.40;;
9473;SDS011;8865;47.636;7.692;2022-09-24T03:53:40;5.83;;;5.30;;
9473;SDS011;8865;47.636;7.692;2022-09-24T03:56:06;7.67;;;5.20;;
9473;SDS011;8865;47.636;7.692;2022-09-24T03:58:33;5.83;;;5.30;;
9473;SDS011;8865;47.636;7.692;2022-09-24T04:01:06;7.10;;;4.97;;
9473;SDS011;8865;47.636;7.692;2022-09-24T04:03:33;6.20;;;5.60;;
9473;SDS011;8865;47.636;7.692;2022-09-24T04:06:00;6.73;;;5.23;;
9473;SDS011;8865;47.636;7.692;2022-09-24T04:08:27;6.17;;;5.57;;
9473;SDS011;8865;47.636;7.692;2022-09-24T04:10:53;6.17;;;5.57;;
9473;SDS011;8865;47.636;7.692;2022-09-24T04:13:19;7.27;;;5.10;;
9473;SDS011;8865;47.636;7.692;2022-09-24T04:15:45;6.27;;;5.67;;
9473;SDS011;8865;47.636;7.692;2022-09-24T04:18:13;5.83;;;5.30;;
9473;SDS011;8865;47.636;7.692;2022-09-24T04:20:39;6.23;;;5.63;;
9473;SDS011;8865;47.636;7.692;2022-09-24T04:23:06;6.77;;;4.50;;
9473;SDS011;8865;47.636;7.692;2022-09-24T04:25:32;5.37;;;4.67;;
9473;SDS011;8865;47.636;7.692;2022-09-24T04:28:05;6.17;;;4.80;;
9473;SDS011;8865;47.636;7.692;2022-09-24T04:30:33;5.30;;;4.80;;
9473;SDS011;8865;47.636;7.692;2022-09-24T04:33:00;6.07;;;5.23;;
9473;SDS011;8865;47.636;7.692;2022-09-24T04:35:28;5.73;;;4.70;;
9473;SDS011;8865;47.636;7.692;2022-09-24T04:37:55;5.90;;;5.03;;
9473;SDS011;8865;47.636;7.692;2022-09-24T04:40:23;5.73;;;5.17;;
9473;SDS011;8865;47.636;7.692;2022-09-24T04:42:49;5.33;;;4.83;;
9473;SDS011;8865;47.636;7.692;2022-09-24T04:45:15;5.67;;;5.17;;
9473;SDS011;8865;47.636;7.692;2022-09-24T04:47:44;5.93;;;5.13;;
9473;SDS011;8865;47.636;7.692;2022-09-24T04:50:27;5.40;;;4.93;;
9473;SDS011;8865;47.636;7.692;2022-09-24T04:52:57;6.23;;;5.50;;
9473;SDS011;8865;47.636;7.692;2022-09-24T04:55:23;5.13;;;4.73;;
9473;SDS011;8865;47.636;7.692;2022-09-24T04:57:50;5.70;;;5.20;;
9473;SDS011;8865;47.636;7.692;2022-09-24T05:00:17;6.03;;;5.40;;
9473;SDS011;8865;47.636;7.692;2022-09-24T05:02:45;5.70;;;5.10;;
9473;SDS011;8865;47.636;7.692;2022-09-24T05:05:11;7.70;;;6.03;;
9473;SDS011;8865;47.636;7.692;2022-09-24T05:07:38;5.67;;;5.17;;
9473;SDS011;8865;47.636;7.692;2022-09-24T05:10:05;5.80;;;5.20;;
9473;SDS011;8865;47.636;7.692;2022-09-24T05:12:31;5.80;;;5.30;;
9473;SDS011;8865;47.636;7.692;2022-09-24T05:14:59;5.80;;;5.30;;
9473;SDS011;8865;47.636;7.692;2022-09-24T05:17:25;6.00;;;5.30;;
9473;SDS011;8865;47.636;7.692;2022-09-24T05:19:51;6.20;;;5.60;;
9473;SDS011;8865;47.636;7.692;2022-09-24T05:22:18;5.93;;;5.43;;
9473;SDS011;8865;47.636;7.692;2022-09-24T05:24:44;5.47;;;5.00;;
9473;SDS011;8865;47.636;7.692;2022-09-24T05:27:10;5.47;;;4.77;;
9473;SDS011;8865;47.636;7.692;2022-09-24T05:29:40;5.30;;;4.80;;
9473;SDS011;8865;47.636;7.692;2022-09-24T05:32:09;5.57;;;5.07;;
9473;SDS011;8865;47.636;7.692;2022-09-24T05:34:36;6.67;;;4.90;;
9473;SDS011;8865;47.636;7.692;2022-09-24T05:37:03;5.50;;;5.00;;
9473;SDS011;8865;47.636;7.692;2022-09-24T05:39:29;5.07;;;4.60;;
9473;SDS011;8865;47.636;7.692;2022-09-24T05:41:55;5.53;;;4.97;;
9473;SDS011;8865;47.636;7.692;2022-09-24T05:44:21;6.07;;;4.67;;
9473;SDS011;8865;47.636;7.692;2022-09-24T05:46:48;5.13;;;4.50;;
9473;SDS011;8865;47.636;7.692;2022-09-24T05:49:14;6.40;;;4.87;;
9473;SDS011;8865;47.636;7.692;2022-09-24T05:51:41;4.37;;;4.07;;
9473;SDS011;8865;47.636;7.692;2022-09-24T05:54:07;5.00;;;4.30;;
9473;SDS011;8865;47.636;7.692;2022-09-24T05:56:33;5.50;;;4.53;;
9473;SDS011;8865;47.636;7.692;2022-09-24T05:58:59;4.80;;;4.40;;
9473;SDS011;8865;47.636;7.692;2022-09-24T06:01:27;4.77;;;4.37;;
9473;SDS011;8865;47.636;7.692;2022-09-24T06:03:55;5.10;;;4.37;;
9473;SDS011;8865;47.636;7.692;2022-09-24T06:06:22;5.60;;;4.50;;
9473;SDS011;8865;47.636;7.692;2022-09-24T06:08:48;5.40;;;4.90;;
9473;SDS011;8865;47.636;7.692;2022-09-24T06:11:15;5.03;;;4.63;;
9473;SDS011;8865;47.636;7.692;2022-09-24T06:13:41;5.13;;;4.73;;
9473;SDS011;8865;47.636;7.692;2022-09-24T06:16:08;6.13;;;5.50;;
9473;SDS011;8865;47.636;7.692;2022-09-24T06:18:35;5.67;;;4.50;;
9473;SDS011;8865;47.636;7.692;2022-09-24T06:21:05;6.03;;;4.57;;
9473;SDS011;8865;47.636;7.692;2022-09-24T06:23:33;4.83;;;4.33;;
9473;SDS011;8865;47.636;7.692;2022-09-24T06:25:59;4.80;;;4.40;;
9473;SDS011;8865;47.636;7.692;2022-09-24T06:28:26;6.67;;;4.00;;
9473;SDS011;8865;47.636;7.692;2022-09-24T06:30:52;5.27;;;3.97;;
9473;SDS011;8865;47.636;7.692;2022-09-24T06:33:18;5.37;;;4.00;;
9473;SDS011;8865;47.636;7.692;2022-09-24T06:35:45;4.63;;;4.20;;
9473;SDS011;8865;47.636;7.692;2022-09-24T06:38:12;4.57;;;3.90;;
9473;SDS011;8865;47.636;7.692;2022-09-24T06:40:40;4.07;;;3.73;;
9473;SDS011;8865;47.636;7.692;2022-09-24T06:43:08;4.63;;;4.17;;
9473;SDS011;8865;47.636;7.692;2022-09-24T06:45:35;4.73;;;4.33;;
9473;SDS011;8865;47.636;7.692;2022-09-24T06:48:02;4.70;;;4.30;;
9473;SDS011;8865;47.636;7.692;2022-09-24T06:50:30;5.07;;;4.57;;
9473;SDS011;8865;47.636;7.692;2022-09-24T06:52:58;4.57;;;4.17;;
9473;SDS011;8865;47.636;7.692;2022-09-24T06:55:25;5.10;;;4.60;;
9473;SDS011;8865;47.636;7.692;2022-09-24T06:58:07;4.80;;;4.40;;
9473;SDS011;8865;47.636;7.692;2022-09-24T07:00:36;4.70;;;4.30;;
9473;SDS011;8865;47.636;7.692;2022-09-24T07:03:03;5.20;;;4.47;;
9473;SDS011;8865;47.636;7.692;2022-09-24T07:05:31;4.83;;;4.20;;
9473;SDS011;8865;47.636;7.692;2022-09-24T07:07:57;5.07;;;4.57;;
9473;SDS011;8865;47.636;7.692;2022-09-24T07:10:23;5.17;;;4.77;;
9473;SDS011;8865;47.636;7.692;2022-09-24T07:12:51;5.37;;;4.30;;
9473;SDS011;8865;47.636;7.692;2022-09-24T07:15:17;7.67;;;4.83;;
9473;SDS011;8865;47.636;7.692;2022-09-24T07:17:42;6.47;;;4.50;;
9473;SDS011;8865;47.636;7.692;2022-09-24T07:20:08;4.70;;;4.30;;
9473;SDS011;8865;47.636;7.692;2022-09-24T07:22:38;5.47;;;4.90;;
9473;SDS011;8865;47.636;7.692;2022-09-24T07:25:06;5.07;;;4.57;;
9473;SDS011;8865;47.636;7.692;2022-09-24T07:27:34;5.43;;;4.87;;
9473;SDS011;8865;47.636;7.692;2022-09-24T07:30:00;7.00;;;4.30;;
9473;SDS011;8865;47.636;7.692;2022-09-24T07:32:26;5.43;;;4.63;;
9473;SDS011;8865;47.636;7.692;2022-09-24T07:35:10;5.13;;;4.50;;
9473;SDS011;8865;47.636;7.692;2022-09-24T07:37:36;5.17;;;4.53;;
9473;SDS011;8865;47.636;7.692;2022-09-24T07:40:02;6.97;;;4.77;;
9473;SDS011;8865;47.636;7.692;2022-09-24T07:42:28;5.27;;;4.77;;
9473;SDS011;8865;47.636;7.692;2022-09-24T07:45:14;5.30;;;4.80;;
9473;SDS011;8865;47.636;7.692;2022-09-24T07:48:02;5.47;;;4.87;;
9473;SDS011;8865;47.636;7.692;2022-09-24T07:50:31;6.33;;;4.20;;
9473;SDS011;8865;47.636;7.692;2022-09-24T07:52:58;5.40;;;4.80;;
9473;SDS011;8865;47.636;7.692;2022-09-24T07:55:27;6.10;;;3.90;;
9473;SDS011;8865;47.636;7.692;2022-09-24T07:57:54;5.13;;;4.50;;
9473;SDS011;8865;47.636;7.692;2022-09-24T08:00:20;5.63;;;4.20;;
9473;SDS011;8865;47.636;7.692;2022-09-24T08:02:48;5.13;;;4.53;;
9473;SDS011;8865;47.636;7.692;2022-09-24T08:05:14;4.80;;;4.27;;
9473;SDS011;8865;47.636;7.692;2022-09-24T08:07:41;4.67;;;4.20;;
9473;SDS011;8865;47.636;7.692;2022-09-24T08:10:07;4.10;;;3.70;;
9473;SDS011;8865;47.636;7.692;2022-09-24T08:12:34;5.33;;;4.30;;
9473;SDS011;8865;47.636;7.692;2022-09-24T08:15:00;5.00;;;4.40;;
9473;SDS011;8865;47.636;7.692;2022-09-24T08:17:26;4.67;;;4.23;;
9473;SDS011;8865;47.636;7.692;2022-09-24T08:19:52;5.13;;;4.63;;
9473;SDS011;8865;47.636;7.692;2022-09-24T08:22:21;5.53;;;4.30;;
9473;SDS011;8865;47.636;7.692;2022-09-24T08:24:48;5.47;;;4.40;;
9473;SDS011;8865;47.636;7.692;2022-09-24T08:27:15;4.60;;;4.20;;
9473;SDS011;8865;47.636;7.692;2022-09-24T08:29:42;4.67;;;4.20;;
9473;SDS011;8865;47.636;7.692;2022-09-24T08:32:08;4.83;;;4.33;;
9473;SDS011;8865;47.636;7.692;2022-09-24T08:34:34;5.63;;;5.10;;
9473;SDS011;8865;47.636;7.692;2022-09-24T08:37:03;5.70;;;5.17;;
9473;SDS011;8865;47.636;7.692;2022-09-24T08:39:30;4.63;;;4.23;;
9473;SDS011;8865;47.636;7.692;2022-09-24T08:41:59;6.63;;;4.63;;
9473;SDS011;8865;47.636;7.692;2022-09-24T08:44:35;5.43;;;4.57;;
9473;SDS011;8865;47.636;7.692;2022-09-24T08:50:49;4.87;;;4.17;;
9473;SDS011;8865;47.636;7.692;2022-09-24T08:55:59;5.30;;;4.80;;
9473;SDS011;8865;47.636;7.692;2022-09-24T09:04:17;6.70;;;5.07;;
9473;SDS011;8865;47.636;7.692;2022-09-24T09:06:51;5.40;;;4.40;;
9473;SDS011;8865;47.636;7.692;2022-09-24T09:09:37;5.43;;;4.00;;
9473;SDS011;8865;47.636;7.692;2022-09-24T09:12:04;5.23;;;4.73;;
9473;SDS011;8865;47.636;7.692;2022-09-24T09:19:39;6.40;;;4.73;;
9473;SDS011;8865;47.636;7.692;2022-09-24T09:22:14;5.53;;;4.50;;
9473;SDS011;8865;47.636;7.692;2022-09-24T09:24:46;4.77;;;4.20;;
9473;SDS011;8865;47.636;7.692;2022-09-24T09:27:14;5.53;;;5.03;;
9473;SDS011;8865;47.636;7.692;2022-09-24T09:29:42;5.27;;;4.70;;
9473;SDS011;8865;47.636;7.692;2022-09-24T09:32:15;5.03;;;4.53;;
9473;SDS011;8865;47.636;7.692;2022-09-24T09:40:44;5.23;;;4.57;;
9473;SDS011;8865;47.636;7.692;2022-09-24T09:43:18;5.70;;;5.13;;
9473;SDS011;8865;47.636;7.692;2022-09-24T09:48:27;6.63;;;5.27;;
9473;SDS011;8865;47.636;7.692;2022-09-24T09:51:02;5.17;;;4.47;;
9473;SDS011;8865;47.636;7.692;2022-09-24T09:53:31;4.03;;;3.53;;
9473;SDS011;8865;47.636;7.692;2022-09-24T09:56:01;3.87;;;3.43;;
9473;SDS011;8865;47.636;7.692;2022-09-24T09:58:30;3.73;;;3.40;;
9473;SDS011;8865;47.636;7.692;2022-09-24T10:01:16;3.60;;;3.30;;
9473;SDS011;8865;47.636;7.692;2022-09-24T10:06:10;3.40;;;2.80;;
9473;SDS011;8865;47.636;7.692;2022-09-24T10:08:37;3.60;;;3.30;;
9473;SDS011;8865;47.636;7.692;2022-09-24T10:11:05;3.47;;;3.17;;
9473;SDS011;8865;47.636;7.692;2022-09-24T10:13:38;3.40;;;3.10;;
9473;SDS011;8865;47.636;7.692;2022-09-24T10:16:04;3.77;;;3.20;;
9473;SDS011;8865;47.636;7.692;2022-09-24T10:21:08;3.10;;;2.80;;
9473;SDS011;8865;47.636;7.692;2022-09-24T10:23:40;3.60;;;2.97;;
9473;SDS011;8865;47.636;7.692;2022-09-24T10:26:08;3.70;;;3.30;;
9473;SDS011;8865;47.636;7.692;2022-09-24T10:28:44;4.40;;;2.97;;
9473;SDS011;8865;47.636;7.692;2022-09-24T10:31:33;3.83;;;3.40;;
9473;SDS011;8865;47.636;7.692;2022-09-24T10:34:03;3.30;;;3.00;;
9473;SDS011;8865;47.636;7.692;2022-09-24T10:36:49;3.30;;;3.00;;
9473;SDS011;8865;47.636;7.692;2022-09-24T10:39:26;3.07;;;2.87;;
9473;SDS011;8865;47.636;7.692;2022-09-24T10:41:53;3.13;;;2.83;;
9473;SDS011;8865;47.636;7.692;2022-09-24T10:44:21;4.70;;;3.00;;
9473;SDS011;8865;47.636;7.692;2022-09-24T10:52:56;2.77;;;2.57;;
9473;SDS011;8865;47.636;7.692;2022-09-24T11:09:08;2.60;;;2.10;;
9473;SDS011;8865;47.636;7.692;2022-09-24T11:11:49;3.00;;;2.20;;
9473;SDS011;8865;47.636;7.692;2022-09-24T11:22:11;2.47;;;2.13;;
9473;SDS011;8865;47.636;7.692;2022-09-24T11:35:23;2.20;;;2.00;;
9473;SDS011;8865;47.636;7.692;2022-09-24T11:46:44;1.80;;;1.70;;
9473;SDS011;8865;47.636;7.692;2022-09-24T11:52:25;2.10;;;2.00;;
9473;SDS011;8865;47.636;7.692;2022-09-24T12:00:31;3.10;;;2.80;;
9473;SDS011;8865;47.636;7.692;2022-09-24T12:03:07;2.97;;;2.40;;
9473;SDS011;8865;47.636;7.692;2022-09-24T12:06:08;2.10;;;1.90;;
9473;SDS011;8865;47.636;7.692;2022-09-24T12:11:15;3.43;;;1.50;;
9473;SDS011;8865;47.636;7.692;2022-09-24T12:13:51;1.63;;;1.53;;
9473;SDS011;8865;47.636;7.692;2022-09-24T12:16:28;1.70;;;1.60;;
9473;SDS011;8865;47.636;7.692;2022-09-24T12:19:14;1.92;;;1.80;;
9473;SDS011;8865;47.636;7.692;2022-09-24T12:21:51;2.22;;;1.90;;
9473;SDS011;8865;47.636;7.692;2022-09-24T12:26:53;1.50;;;1.30;;
9473;SDS011;8865;47.636;7.692;2022-09-24T12:38:24;2.33;;;1.90;;
9473;SDS011;8865;47.636;7.692;2022-09-24T12:43:35;2.87;;;2.00;;
9473;SDS011;8865;47.636;7.692;2022-09-24T12:46:27;2.83;;;2.53;;
9473;SDS011;8865;47.636;7.692;2022-09-24T12:48:54;2.40;;;2.20;;
9473;SDS011;8865;47.636;7.692;2022-09-24T12:51:21;2.40;;;1.97;;
9473;SDS011;8865;47.636;7.692;2022-09-24T12:53:58;2.30;;;2.10;;
9473;SDS011;8865;47.636;7.692;2022-09-24T12:56:30;2.13;;;1.60;;
9473;SDS011;8865;47.636;7.692;2022-09-24T12:58:56;2.10;;;1.90;;
9473;SDS011;8865;47.636;7.692;2022-09-24T13:06:39;2.90;;;2.60;;
9473;SDS011;8865;47.636;7.692;2022-09-24T13:12:04;2.87;;;2.60;;
9473;SDS011;8865;47.636;7.692;2022-09-24T13:14:31;3.40;;;3.00;;
9473;SDS011;8865;47.636;7.692;2022-09-24T13:17:02;4.80;;;3.97;;
9473;SDS011;8865;47.636;7.692;2022-09-24T13:19:35;5.00;;;4.30;;
9473;SDS011;8865;47.636;7.692;2022-09-24T13:22:05;4.73;;;3.83;;
9473;SDS011;8865;47.636;7.692;2022-09-24T13:24:49;3.40;;;3.10;;
9473;SDS011;8865;47.636;7.692;2022-09-24T13:27:22;3.57;;;2.93;;
9473;SDS011;8865;47.636;7.692;2022-09-24T13:30:12;4.10;;;3.20;;
9473;SDS011;8865;47.636;7.692;2022-09-24T13:32:53;3.63;;;3.20;;
9473;SDS011;8865;47.636;7.692;2022-09-24T13:38:46;3.40;;;3.00;;
9473;SDS011;8865;47.636;7.692;2022-09-24T13:46:55;3.97;;;3.27;;
9473;SDS011;8865;47.636;7.692;2022-09-24T13:49:44;3.90;;;3.33;;
9473;SDS011;8865;47.636;7.692;2022-09-24T13:52:33;3.47;;;3.17;;
9473;SDS011;8865;47.636;7.692;2022-09-24T13:55:49;3.80;;;3.50;;
9473;SDS011;8865;47.636;7.692;2022-09-24T13:58:28;3.60;;;2.87;;
9473;SDS011;8865;47.636;7.692;2022-09-24T14:01:21;15.07;;;13.47;;
9473;SDS011;8865;47.636;7.692;2022-09-24T14:04:29;3.77;;;3.47;;
9473;SDS011;8865;47.636;7.692;2022-09-24T14:06:56;3.63;;;2.73;;
9473;SDS011;8865;47.636;7.692;2022-09-24T14:09:34;5.33;;;3.00;;
9473;SDS011;8865;47.636;7.692;2022-09-24T14:12:11;2.63;;;2.43;;
9473;SDS011;8865;47.636;7.692;2022-09-24T14:14:54;2.97;;;2.67;;
9473;SDS011;8865;47.636;7.692;2022-09-24T14:17:42;3.00;;;2.70;;
9473;SDS011;8865;47.636;7.692;2022-09-24T14:20:28;3.43;;;2.80;;
9473;SDS011;8865;47.636;7.692;2022-09-24T14:23:19;3.03;;;2.73;;
9473;SDS011;8865;47.636;7.692;2022-09-24T14:30:14;3.20;;;2.90;;
9473;SDS011;8865;47.636;7.692;2022-09-24T14:35:05;3.10;;;2.80;;
9473;SDS011;8865;47.636;7.692;2022-09-24T14:37:51;3.07;;;2.77;;
9473;SDS011;8865;47.636;7.692;2022-09-24T14:40:24;2.50;;;2.07;;
9473;SDS011;8865;47.636;7.692;2022-09-24T14:42:57;3.20;;;2.63;;
9473;SDS011;8865;47.636;7.692;2022-09-24T14:45:30;3.40;;;3.10;;
9473;SDS011;8865;47.636;7.692;2022-09-24T14:48:29;3.80;;;3.40;;
9473;SDS011;8865;47.636;7.692;2022-09-24T14:51:24;3.90;;;3.60;;
9473;SDS011;8865;47.636;7.692;2022-09-24T14:54:00;4.60;;;3.60;;
9473;SDS011;8865;47.636;7.692;2022-09-24T14:56:48;4.30;;;2.70;;
9473;SDS011;8865;47.636;7.692;2022-09-24T14:59:24;3.37;;;2.63;;
9473;SDS011;8865;47.636;7.692;2022-09-24T15:02:08;4.60;;;3.10;;
9473;SDS011;8865;47.636;7.692;2022-09-24T15:04:42;2.80;;;2.60;;
9473;SDS011;8865;47.636;7.692;2022-09-24T15:07:17;2.50;;;2.30;;
9473;SDS011;8865;47.636;7.692;2022-09-24T15:09:49;2.67;;;2.30;;
9473;SDS011;8865;47.636;7.692;2022-09-24T15:12:21;4.43;;;3.00;;
9473;SDS011;8865;47.636;7.692;2022-09-24T15:15:22;3.03;;;2.83;;
9473;SDS011;8865;47.636;7.692;2022-09-24T15:17:41;3.30;;;2.87;;
9473;SDS011;8865;47.636;7.692;2022-09-24T15:20:09;3.43;;;2.97;;
9473;SDS011;8865;47.636;7.692;2022-09-24T15:22:36;3.40;;;3.10;;
9473;SDS011;8865;47.636;7.692;2022-09-24T15:25:03;3.00;;;2.70;;
9473;SDS011;8865;47.636;7.692;2022-09-24T15:27:31;3.20;;;2.90;;
9473;SDS011;8865;47.636;7.692;2022-09-24T15:29:59;3.13;;;2.83;;
9473;SDS011;8865;47.636;7.692;2022-09-24T15:32:30;3.50;;;3.20;;
9473;SDS011;8865;47.636;7.692;2022-09-24T15:34:58;4.23;;;3.20;;
9473;SDS011;8865;47.636;7.692;2022-09-24T15:37:25;3.30;;;3.00;;
9473;SDS011;8865;47.636;7.692;2022-09-24T15:39:55;3.63;;;3.33;;
9473;SDS011;8865;47.636;7.692;2022-09-24T15:42:26;4.47;;;3.63;;
9473;SDS011;8865;47.636;7.692;2022-09-24T15:44:52;4.80;;;4.03;;
9473;SDS011;8865;47.636;7.692;2022-09-24T15:47:21;4.27;;;3.87;;
9473;SDS011;8865;47.636;7.692;2022-09-24T15:49:48;3.20;;;2.90;;
9473;SDS011;8865;47.636;7.692;2022-09-24T15:52:15;2.87;;;2.67;;
9473;SDS011;8865;47.636;7.692;2022-09-24T15:54:52;2.47;;;2.27;;
9473;SDS011;8865;47.636;7.692;2022-09-24T15:57:20;2.60;;;2.40;;
9473;SDS011;8865;47.636;7.692;2022-09-24T15:59:47;2.60;;;2.37;;
9473;SDS011;8865;47.636;7.692;2022-09-24T16:02:19;2.10;;;1.90;;
9473;SDS011;8865;47.636;7.692;2022-09-24T16:04:48;2.10;;;2.00;;
9473;SDS011;8865;47.636;7.692;2022-09-24T16:07:14;2.60;;;2.03;;
9473;SDS011;8865;47.636;7.692;2022-09-24T16:09:40;2.40;;;2.20;;
9473;SDS011;8865;47.636;7.692;2022-09-24T16:12:06;2.53;;;2.30;;
9473;SDS011;8865;47.636;7.692;2022-09-24T16:14:32;3.30;;;2.50;;
9473;SDS011;8865;47.636;7.692;2022-09-24T16:16:58;2.30;;;2.10;;
9473;SDS011;8865;47.636;7.692;2022-09-24T16:19:24;2.27;;;2.07;;
9473;SDS011;8865;47.636;7.692;2022-09-24T16:21:50;2.60;;;2.40;;
9473;SDS011;8865;47.636;7.692;2022-09-24T16:24:17;3.13;;;2.60;;
9473;SDS011;8865;47.636;7.692;2022-09-24T16:26:43;2.50;;;2.30;;
9473;SDS011;8865;47.636;7.692;2022-09-24T16:29:09;2.63;;;2.40;;
9473;SDS011;8865;47.636;7.692;2022-09-24T16:31:36;2.63;;;2.43;;
9473;SDS011;8865;47.636;7.692;2022-09-24T16:34:02;2.90;;;2.40;;
9473;SDS011;8865;47.636;7.692;2022-09-24T16:36:29;3.53;;;2.57;;
9473;SDS011;8865;47.636;7.692;2022-09-24T16:38:55;2.80;;;2.50;;
9473;SDS011;8865;47.636;7.692;2022-09-24T16:41:22;3.60;;;2.47;;
9473;SDS011;8865;47.636;7.692;2022-09-24T16:43:48;2.97;;;2.67;;
9473;SDS011;8865;47.636;7.692;2022-09-24T16:46:14;3.23;;;2.50;;
9473;SDS011;8865;47.636;7.692;2022-09-24T16:48:40;4.77;;;2.90;;
9473;SDS011;8865;47.636;7.692;2022-09-24T16:51:09;4.47;;;4.00;;
9473;SDS011;8865;47.636;7.692;2022-09-24T16:53:36;7.03;;;3.53;;
9473;SDS011;8865;47.636;7.692;2022-09-24T16:56:06;5.23;;;3.10;;
9473;SDS011;8865;47.636;7.692;2022-09-24T16:58:34;3.47;;;3.13;;
9473;SDS011;8865;47.636;7.692;2022-09-24T17:01:09;4.00;;;3.07;;
9473;SDS011;8865;47.636;7.692;2022-09-24T17:03:36;4.27;;;3.20;;
9473;SDS011;8865;47.636;7.692;2022-09-24T17:06:03;4.53;;;3.10;;
9473;SDS011;8865;47.636;7.692;2022-09-24T17:08:30;4.73;;;3.13;;
9473;SDS011;8865;47.636;7.692;2022-09-24T17:11:16;7.17;;;4.07;;
9473;SDS011;8865;47.636;7.692;2022-09-24T17:13:42;5.10;;;4.20;;
9473;SDS011;8865;47.636;7.692;2022-09-24T17:16:08;3.97;;;3.53;;
9473;SDS011;8865;47.636;7.692;2022-09-24T17:18:35;6.03;;;3.50;;
9473;SDS011;8865;47.636;7.692;2022-09-24T17:21:05;4.00;;;3.37;;
9473;SDS011;8865;47.636;7.692;2022-09-24T17:23:33;5.00;;;3.57;;
9473;SDS011;8865;47.636;7.692;2022-09-24T17:26:03;5.10;;;4.60;;
9473;SDS011;8865;47.636;7.692;2022-09-24T17:28:37;4.20;;;3.90;;
9473;SDS011;8865;47.636;7.692;2022-09-24T17:31:04;4.53;;;3.70;;
9473;SDS011;8865;47.636;7.692;2022-09-24T17:33:31;4.60;;;4.20;;
9473;SDS011;8865;47.636;7.692;2022-09-24T17:35:59;4.33;;;3.90;;
9473;SDS011;8865;47.636;7.692;2022-09-24T17:38:28;4.83;;;3.97;;
9473;SDS011;8865;47.636;7.692;2022-09-24T17:40:55;5.90;;;4.40;;
9473;SDS011;8865;47.636;7.692;2022-09-24T17:43:23;6.37;;;5.37;;
9473;SDS011;8865;47.636;7.692;2022-09-24T17:48:21;6.17;;;4.37;;
9473;SDS011;8865;47.636;7.692;2022-09-24T17:50:51;3.97;;;3.60;;
9473;SDS011;8865;47.636;7.692;2022-09-24T17:53:21;5.90;;;3.97;;
9473;SDS011;8865;47.636;7.692;2022-09-24T17:55:48;5.17;;;3.67;;
9473;SDS011;8865;47.636;7.692;2022-09-24T17:58:15;4.97;;;4.30;;
9473;SDS011;8865;47.636;7.692;2022-09-24T18:00:44;4.60;;;4.10;;
9473;SDS011;8865;47.636;7.692;2022-09-24T18:03:11;5.57;;;4.10;;
9473;SDS011;8865;47.636;7.692;2022-09-24T18:05:37;7.37;;;5.07;;
9473;SDS011;8865;47.636;7.692;2022-09-24T18:08:04;7.53;;;5.33;;
9473;SDS011;8865;47.636;7.692;2022-09-24T18:10:30;7.53;;;4.80;;
9473;SDS011;8865;47.636;7.692;2022-09-24T18:12:57;7.13;;;4.67;;
9473;SDS011;8865;47.636;7.692;2022-09-24T18:15:24;6.07;;;3.90;;